Historyczne dane pomiarowe

Dodano dane terminowe – wersja testowa.

Dane z okresu 1951-2019

Wersja bazy: 1.34 [2019-03-16, lista zmian], aktualizacja planowana na 2019-04-15

Dane meteo z obszaru Polski uzyskane na podstawie danych udostępnionych przez Instytut Meteorologii i Gospodarki Wodnej – Państwowy Instytut Badawczy.

 

Wybierz Datę:    

       

TemperaturaWilgotnośćWiatrCiśnienieOpadyŚniegCzas trwania zjawisk
 Stacja t tx tn tng RH VA  wxwx mslp ppp RRR   cm mm wxwxwxwxwxwxwx
1983-08-14 14.7 20.0 9.6 7.9 66.8- 2.3 2.0---- 0.0------------
1983-08-13 15.9 23.3 12.6 11.4 80.8- 6.3 2.7---- 10.4------------
1983-08-12 22.1 26.7 16.6 12.4 57.8- 0.7 2.0---- 6.3------------
1983-08-11 21.5 27.0 15.3 12.0 66.5- 2.3 0.7---- 0.0------------
1983-08-10 21.0 27.1 14.0 10.7 67.8- 1.3 1.0---- 0.0------------
1983-08-09 21.6 27.6 16.2 13.7 72.0- 1.0 1.0---- 0.0------------
1983-08-08 19.9 27.7 15.4 13.0 83.3- 4.7 1.0---- 2.2------------
1983-08-07 17.9 24.4 16.5 14.9 87.5- 6.3 1.3---- 32.0------------
1983-08-06 17.8 23.1 10.9 7.4 69.3- 2.0 1.3---- 1.5------------
1983-08-05 14.9 19.4 11.5 11.0 75.8- 7.0 1.7---- 0.0------------
1983-08-04 14.9 21.4 13.5 13.3 86.5- 8.0 1.0---- 6.3------------
1983-08-03 21.1 27.7 16.2 16.2 82.0- 7.3 0.7---- 2.4------------
1983-08-02 23.0 29.2 16.1 11.4 54.0- 5.7 1.7---- 11.9------------
1983-08-01 22.3 28.8 13.9 9.7 49.5- 0.0 2.3---- 0.0------------
1983-07-31 19.5 25.0 12.4 9.4 55.5- 1.3 1.3---- 0.0------------
1983-07-30 17.3 22.1 15.7 15.4 77.5- 8.0 4.7---- 0.0------------
1983-07-29 20.1 25.3 14.9 13.5 62.3- 3.7 2.3---- 1.2------------
1983-07-28 22.8 27.0 18.9 16.5 63.0- 4.7 3.3---- 0.0------------
1983-07-27 23.8 31.4 13.4 12.0 60.8- 1.3 0.0---- 1.5------------
1983-07-26 21.5 29.1 13.3 12.3 67.3- 1.3 1.0---- 0.0------------
1983-07-25 15.7 18.8 10.8 5.7 79.8- 7.7 3.0---- 7.5------------
1983-07-24 16.0 19.6 12.7 10.7 81.0- 4.7 0.3---- 0.0------------
1983-07-23 16.2 20.6 12.5 11.0 73.5- 6.0 3.0---- 1.9------------
1983-07-22 15.4 19.7 10.7 9.6 60.8- 7.0 3.0---- 1.0------------
1983-07-21 14.4 18.9 10.1 8.0 60.0- 3.7 3.3---- 0.0------------
1983-07-20 16.2 25.0 10.7 11.3 60.0- 6.3 2.3---- 7.0------------
1983-07-19 24.4 27.0 20.3 17.6 54.0- 5.0 2.0---- 0.0------------
1983-07-18 22.7 30.6 13.4 7.7 55.3- 0.7 0.7---- 0.0------------
1983-07-17 20.0 24.3 15.6 12.0 63.3- 1.3 1.0---- 0.0------------
1983-07-16 21.6 28.4 16.2 11.8 56.5- 3.3 3.7---- 0.9------------
1983-07-15 20.0 25.9 12.3 9.7 54.5- 2.0 1.7---- 0.0------------
1983-07-14 20.6 25.8 16.9 15.5 75.5- 5.7 2.7---- 0.0------------
1983-07-13 22.1 27.3 17.4 13.5 68.3- 3.0 1.0---- 8.2------------
1983-07-12 22.1 27.4 16.6 15.8 70.0- 5.3 2.3---- 0.0------------
1983-07-11 21.8 27.0 18.1 14.4 71.0- 6.7 1.7---- 3.8------------
1983-07-10 24.1 30.7 16.0 13.3 51.5- 2.3 1.7---- 0.0------------
1983-07-09 22.8 29.4 15.4 10.5 55.3- 1.0 0.7---- 0.0------------
1983-07-08 21.0 27.3 12.5 7.0 56.3- 1.0 1.3---- 0.0------------
1983-07-07 21.4 27.1 14.0 9.4 55.0- 0.0 1.3---- 0.0------------
1983-07-06 21.8 27.9 14.0 9.0 59.3- 0.7 2.0---- 0.0------------
1983-07-05 19.8 24.9 14.0 12.0 61.5- 0.7 0.7---- 0.0------------
1983-07-04 22.2 26.5 17.4 11.5 52.3- 1.3 1.0---- 0.0------------
1983-07-03 19.4 24.6 12.6 7.5 63.0- 2.0 0.3---- 0.0------------
1983-07-02 18.2 24.8 15.0 14.3 80.3- 4.7 2.3---- 0.9------------
1983-07-01 21.5 27.5 13.5 8.5 61.8- 2.7 2.0---- 1.3------------
1983-06-30 18.6 24.4 10.8 6.4 52.8- 0.0 1.3---- 0.0------------
1983-06-29 16.0 20.0 9.5 6.5 58.5- 1.7 2.3---- 0.0------------
1983-06-28 17.2 22.1 14.8 14.6 79.8- 5.0 2.3---- 2.4------------
1983-06-27 19.3 26.0 15.0 9.0 72.8- 6.0 1.7---- 7.9------------
1983-06-26 20.6 25.4 14.3 9.7 53.0- 0.0 1.7---- 0.4------------
1983-06-25 21.9 29.3 16.7 6.7 50.5- 5.7 2.3---- 0.5------------
1983-06-24 20.0 26.2 12.7 5.0 41.0- 0.3 1.7---- 0.0------------
1983-06-23 16.4 22.0 7.2 1.7 45.8- 0.0 1.0---- 0.0------------
1983-06-22 14.4 19.3 7.0 4.0 47.8- 0.0 1.7---- 0.0------------
1983-06-21 18.4 24.8 13.4 9.4 61.8- 1.0 3.0---- 0.0------------
1983-06-20 20.5 25.5 15.1 12.4 59.8- 2.3 3.0---- 0.0------------
1983-06-19 17.5 20.8 14.4 14.0 82.5- 8.0 3.3---- 0.0------------
1983-06-18 14.3 17.2 11.5 10.2 79.3- 7.7 2.3---- 0.0------------
1983-06-17 14.3 18.6 9.0 7.5 71.0- 4.7 2.0---- 0.0------------
1983-06-16 13.3 17.3 10.4 10.3 77.8- 6.7 3.3---- 0.0------------
274.4 ms

 

Źródłem pochodzenia danych jest Instytut Meteorologii i Gospodarki Wodnej – Państwowy Instytut Badawczy. Dane Instytutu Meteorologii i Gospodarki Wodnej – Państwowego Instytutu Badawczego zostały przetworzone.

Dane źródłowe można odnaleźć na stronie https://dane.imgw.pl